Time;durP1;ratioP1;P1;durP2;ratioP2;P2;SDS_P1;SDS_P2;PMS_P1;PMS_P2;Temp;Humidity;BMP_temperature;BMP_pressure;BME280_temperature;BME280_humidity;BME280_pressure;Samples;Min_cycle;Max_cycle;Signal;HPM_P1;HPM_P2
2022/04/24 00:01:11;;;;;;;11.15;8.50;;;11.00;99.90;;;;;;5016581;28;20124;-64
2022/04/24 00:03:36;;;;;;;10.63;8.30;;;11.00;99.90;;;;;;4999320;28;20120;-63
2022/04/24 00:06:02;;;;;;;11.63;8.52;;;11.10;99.90;;;;;;5016244;28;20042;-64
2022/04/24 00:08:28;;;;;;;9.80;7.80;;;11.00;99.90;;;;;;5003727;28;20097;-63
2022/04/24 00:10:53;;;;;;;10.35;8.40;;;11.00;99.90;;;;;;4996884;28;20103;-64
2022/04/24 00:13:19;;;;;;;11.00;8.73;;;10.90;99.90;;;;;;4979722;28;20074;-64
2022/04/24 00:15:45;;;;;;;13.50;8.80;;;10.80;99.90;;;;;;4995958;28;20108;-64
2022/04/24 00:18:10;;;;;;;10.77;8.85;;;10.80;99.90;;;;;;4989404;28;20083;-63
2022/04/24 00:20:36;;;;;;;10.05;7.97;;;10.80;99.90;;;;;;5016402;28;20038;-64
2022/04/24 00:23:02;;;;;;;10.25;8.50;;;10.80;99.90;;;;;;5016269;28;20383;-63
2022/04/24 00:25:28;;;;;;;10.40;8.52;;;10.70;99.90;;;;;;5015996;28;20163;-64
2022/04/24 00:27:54;;;;;;;11.30;7.72;;;10.80;99.90;;;;;;5007646;28;20060;-63
2022/04/24 00:30:20;;;;;;;9.73;8.20;;;10.70;99.90;;;;;;4996298;28;20034;-62
2022/04/24 00:32:45;;;;;;;10.10;7.40;;;10.60;99.90;;;;;;4996430;28;20031;-63
2022/04/24 00:35:11;;;;;;;9.88;7.82;;;10.50;99.90;;;;;;4995758;28;20458;-64
2022/04/24 00:37:36;;;;;;;11.30;7.38;;;10.60;99.90;;;;;;5001398;28;20128;-65
2022/04/24 00:40:02;;;;;;;10.80;7.43;;;10.50;99.90;;;;;;5016060;28;20034;-63
2022/04/24 00:42:29;;;;;;;12.63;7.97;;;10.60;99.90;;;;;;5016085;28;20042;-62
2022/04/24 00:44:55;;;;;;;11.35;8.02;;;10.60;99.90;;;;;;5015168;28;20048;-63
2022/04/24 00:47:23;;;;;;;9.55;7.78;;;10.60;99.90;;;;;;5011812;28;20093;-63
2022/04/24 00:49:49;;;;;;;12.73;8.32;;;10.50;99.90;;;;;;4996009;28;20062;-63
2022/04/24 00:52:17;;;;;;;11.23;7.18;;;10.40;99.90;;;;;;4996076;28;20042;-63
2022/04/24 00:54:43;;;;;;;12.98;7.65;;;10.50;99.90;;;;;;4995713;28;20100;-64
2022/04/24 00:57:10;;;;;;;10.93;7.75;;;10.40;99.90;;;;;;4997571;28;20343;-63
2022/04/24 00:59:40;;;;;;;12.38;7.25;;;10.40;99.90;;;;;;5015834;28;20038;-64
2022/04/24 01:02:07;;;;;;;10.23;7.15;;;10.30;99.90;;;;;;4997846;28;20527;-64
2022/04/24 01:04:37;;;;;;;9.50;7.05;;;10.30;99.90;;;;;;4997669;28;20042;-63
2022/04/24 01:07:04;;;;;;;8.23;7.25;;;10.30;99.90;;;;;;5014160;28;20099;-63
2022/04/24 01:09:33;;;;;;;9.48;7.57;;;10.30;99.90;;;;;;4995688;28;20445;-63
2022/04/24 01:11:58;;;;;;;9.60;7.30;;;10.10;99.90;;;;;;4995775;28;20053;-64
2022/04/24 01:14:25;;;;;;;9.60;7.20;;;10.10;99.90;;;;;;4995446;28;20042;-63
2022/04/24 01:16:52;;;;;;;11.38;6.53;;;10.10;99.90;;;;;;4995351;28;20050;-63
2022/04/24 01:19:18;;;;;;;9.40;7.50;;;10.00;99.90;;;;;;4995922;28;20443;-65
2022/04/24 01:21:45;;;;;;;8.95;6.90;;;10.00;99.90;;;;;;4995375;28;20172;-64
2022/04/24 01:24:12;;;;;;;11.13;8.18;;;10.10;99.90;;;;;;4995228;28;20156;-63
2022/04/24 01:26:38;;;;;;;9.60;6.85;;;10.00;99.90;;;;;;4995276;28;20065;-63
2022/04/24 01:29:04;;;;;;;8.85;6.70;;;10.00;99.90;;;;;;5011764;28;20455;-63
2022/04/24 01:31:31;;;;;;;8.70;7.45;;;10.00;99.90;;;;;;5014832;28;20048;-63
2022/04/24 01:33:57;;;;;;;10.70;7.63;;;10.00;99.90;;;;;;5014595;28;20038;-63
2022/04/24 01:36:23;;;;;;;9.80;6.70;;;10.00;99.90;;;;;;5014723;28;20044;-63
2022/04/24 01:38:48;;;;;;;9.30;7.10;;;10.00;99.90;;;;;;4999498;28;20038;-63
2022/04/24 01:41:14;;;;;;;9.40;7.57;;;9.90;99.90;;;;;;4994934;28;20038;-64
2022/04/24 01:43:41;;;;;;;9.27;6.65;;;9.90;99.90;;;;;;4994688;28;20439;-63
2022/04/24 01:46:08;;;;;;;10.77;7.07;;;9.80;99.90;;;;;;4994417;28;20054;-64
2022/04/24 01:48:34;;;;;;;9.15;6.97;;;9.80;99.90;;;;;;5007249;28;20371;-63
2022/04/24 01:51:04;;;;;;;9.70;6.53;;;9.80;99.90;;;;;;5014659;28;20103;-63
2022/04/24 01:53:30;;;;;;;7.88;6.00;;;9.80;99.90;;;;;;5014486;28;20136;-63
2022/04/24 01:55:57;;;;;;;10.10;6.85;;;9.80;99.90;;;;;;5014391;28;20037;-63
2022/04/24 01:58:23;;;;;;;8.93;7.25;;;9.70;99.90;;;;;;5002742;28;20544;-63
2022/04/24 02:00:49;;;;;;;11.00;7.43;;;9.80;99.90;;;;;;4977346;28;20364;-63
2022/04/24 02:03:15;;;;;;;10.30;7.38;;;9.80;99.90;;;;;;4994547;28;20039;-63
2022/04/24 02:05:40;;;;;;;8.80;7.13;;;9.80;99.90;;;;;;4994328;28;20034;-63
2022/04/24 02:08:06;;;;;;;9.57;7.20;;;9.70;99.90;;;;;;5003414;28;20435;-64
2022/04/24 02:10:32;;;;;;;8.93;6.75;;;9.70;99.90;;;;;;5014225;28;20094;-63
2022/04/24 02:12:58;;;;;;;11.35;6.88;;;9.70;99.90;;;;;;5013992;28;20099;-63
2022/04/24 02:15:24;;;;;;;11.40;7.10;;;9.60;99.90;;;;;;5013728;28;20141;-63
2022/04/24 02:17:49;;;;;;;8.30;6.28;;;9.60;99.90;;;;;;4989671;28;20435;-63
2022/04/24 02:20:15;;;;;;;9.13;7.07;;;9.60;99.90;;;;;;4994473;28;20470;-63
2022/04/24 02:22:41;;;;;;;10.32;7.45;;;9.50;99.90;;;;;;4976936;28;20046;-63
2022/04/24 02:25:07;;;;;;;9.75;6.88;;;9.50;99.90;;;;;;4993770;28;20037;-64
2022/04/24 02:27:34;;;;;;;9.35;6.78;;;9.50;99.90;;;;;;4998023;28;20089;-64
2022/04/24 02:29:59;;;;;;;9.57;6.95;;;9.40;99.90;;;;;;5013895;28;20034;-63
2022/04/24 02:32:25;;;;;;;9.13;6.88;;;9.40;99.90;;;;;;5013912;28;20056;-63
2022/04/24 02:34:51;;;;;;;9.70;6.65;;;9.30;99.90;;;;;;5013220;28;20108;-63
2022/04/24 02:37:17;;;;;;;8.57;6.78;;;9.30;99.90;;;;;;5011242;28;20467;-64
2022/04/24 02:39:43;;;;;;;10.30;6.93;;;9.20;99.90;;;;;;4993959;28;20061;-64
2022/04/24 02:42:09;;;;;;;9.75;6.95;;;9.20;99.90;;;;;;4993854;28;20058;-63
2022/04/24 02:44:34;;;;;;;11.15;6.53;;;9.20;99.90;;;;;;4993759;28;20044;-63
2022/04/24 02:47:01;;;;;;;8.57;6.78;;;9.20;99.90;;;;;;4993564;28;20058;-63
2022/04/24 02:49:27;;;;;;;10.07;7.15;;;9.20;99.90;;;;;;5013335;28;20089;-63
2022/04/24 02:51:52;;;;;;;9.35;6.60;;;9.20;99.90;;;;;;4996051;28;20073;-63
2022/04/24 02:54:18;;;;;;;8.75;6.90;;;9.10;99.90;;;;;;5013190;28;20037;-63
2022/04/24 02:56:44;;;;;;;10.05;6.93;;;9.00;99.90;;;;;;5013527;28;20478;-63
2022/04/24 02:59:11;;;;;;;8.93;6.50;;;9.00;99.90;;;;;;4995439;28;20058;-63
2022/04/24 03:01:38;;;;;;;10.65;7.32;;;9.10;99.90;;;;;;4993683;28;20421;-63
2022/04/24 03:04:04;;;;;;;10.65;6.78;;;9.00;99.90;;;;;;4993318;28;20050;-63
2022/04/24 03:06:30;;;;;;;9.32;6.72;;;8.90;99.90;;;;;;4976482;28;20428;-63
2022/04/24 03:08:56;;;;;;;8.90;6.72;;;8.90;99.90;;;;;;5008783;28;20069;-63
2022/04/24 03:11:22;;;;;;;9.65;6.93;;;8.90;99.90;;;;;;5013507;28;20126;-63
2022/04/24 03:13:47;;;;;;;10.48;6.97;;;8.80;99.90;;;;;;5012984;28;20095;-64
2022/04/24 03:16:13;;;;;;;9.48;6.88;;;8.80;99.90;;;;;;5013135;28;20117;-64
2022/04/24 03:18:38;;;;;;;9.35;7.00;;;8.80;99.90;;;;;;5000513;28;20042;-64
2022/04/24 03:21:04;;;;;;;16.35;7.88;;;8.70;99.90;;;;;;4993442;28;20201;-63
2022/04/24 03:23:30;;;;;;;9.57;6.95;;;8.60;99.90;;;;;;4993544;28;20038;-63
2022/04/24 03:25:55;;;;;;;8.02;6.95;;;8.50;99.90;;;;;;4993433;28;20073;-63
2022/04/24 03:28:21;;;;;;;11.30;7.90;;;8.50;99.90;;;;;;5003419;28;20045;-63
2022/04/24 03:30:46;;;;;;;10.23;7.78;;;8.50;99.90;;;;;;5013088;28;20046;-63
2022/04/24 03:33:12;;;;;;;8.88;6.97;;;8.40;99.90;;;;;;5012987;28;20081;-63
2022/04/24 03:35:38;;;;;;;9.57;7.95;;;8.30;99.90;;;;;;5012919;28;20370;-63
2022/04/24 03:38:03;;;;;;;11.43;7.53;;;8.30;99.90;;;;;;5005107;28;20432;-63
2022/04/24 03:40:29;;;;;;;9.75;7.38;;;8.20;99.90;;;;;;4993750;28;20439;-63
2022/04/24 03:42:55;;;;;;;10.68;7.72;;;8.10;99.90;;;;;;4976393;28;20038;-63
2022/04/24 03:45:20;;;;;;;11.02;8.02;;;8.10;99.90;;;;;;4992727;28;20057;-63
2022/04/24 03:47:51;;;;;;;11.35;8.32;;;8.10;99.90;;;;;;4998751;28;20041;-63
2022/04/24 03:50:21;;;;;;;9.63;7.60;;;8.00;99.90;;;;;;4995843;28;20033;-63
2022/04/24 03:52:47;;;;;;;10.38;8.75;;;7.90;99.90;;;;;;5013086;28;20064;-63
2022/04/24 03:55:13;;;;;;;9.95;7.45;;;7.90;99.90;;;;;;5012673;28;20056;-63
2022/04/24 03:57:39;;;;;;;11.18;7.80;;;7.90;99.90;;;;;;5008194;28;20124;-62
2022/04/24 04:00:05;;;;;;;9.15;7.25;;;7.90;99.90;;;;;;4993389;28;20514;-63
2022/04/24 04:02:31;;;;;;;8.35;7.03;;;7.80;99.90;;;;;;4976371;28;20080;-64
2022/04/24 04:04:57;;;;;;;9.85;6.82;;;7.80;99.90;;;;;;4992931;28;20042;-63
2022/04/24 04:07:23;;;;;;;14.45;7.55;;;7.90;99.90;;;;;;4977982;28;20049;-63
2022/04/24 04:09:49;;;;;;;10.98;7.10;;;7.80;99.90;;;;;;5012983;28;20046;-63
2022/04/24 04:12:15;;;;;;;9.27;7.63;;;7.90;99.90;;;;;;5016460;28;20045;-63
2022/04/24 04:14:40;;;;;;;9.68;7.43;;;7.80;99.90;;;;;;5016073;28;20042;-63
2022/04/24 04:17:06;;;;;;;9.38;7.20;;;7.80;99.90;;;;;;5015815;28;20463;-62
2022/04/24 04:19:32;;;;;;;11.10;7.68;;;7.80;99.90;;;;;;4997168;28;20046;-62
2022/04/24 04:21:58;;;;;;;10.07;7.63;;;7.80;99.90;;;;;;4996777;28;20487;-63
2022/04/24 04:24:24;;;;;;;9.20;7.35;;;7.80;99.90;;;;;;4996312;28;20065;-62
2022/04/24 04:26:49;;;;;;;12.50;7.70;;;7.80;99.90;;;;;;4996688;28;20042;-63
2022/04/24 04:29:15;;;;;;;11.32;7.60;;;7.70;99.90;;;;;;5013623;28;20072;-63
2022/04/24 04:31:40;;;;;;;8.55;6.53;;;7.70;99.90;;;;;;5015644;28;20038;-63
2022/04/24 04:34:06;;;;;;;9.45;7.47;;;7.70;99.90;;;;;;5015655;28;20084;-63
2022/04/24 04:36:32;;;;;;;8.27;7.05;;;7.70;99.90;;;;;;5016126;28;20178;-63
2022/04/24 04:38:57;;;;;;;10.40;7.35;;;7.70;99.90;;;;;;5000945;28;20089;-62
2022/04/24 04:41:23;;;;;;;11.35;6.82;;;7.70;99.90;;;;;;4995944;28;20050;-63
2022/04/24 04:43:49;;;;;;;9.18;7.07;;;7.70;99.90;;;;;;4996184;28;20038;-63
2022/04/24 04:46:14;;;;;;;12.07;7.45;;;7.80;99.90;;;;;;4995771;28;20138;-63
2022/04/24 04:48:40;;;;;;;10.23;6.90;;;7.60;99.90;;;;;;4990989;28;20046;-63
2022/04/24 04:51:06;;;;;;;8.77;7.25;;;7.70;99.90;;;;;;5015523;28;20041;-63
2022/04/24 04:53:32;;;;;;;9.82;7.35;;;7.70;99.90;;;;;;5015257;28;20042;-62
2022/04/24 04:55:57;;;;;;;9.88;7.15;;;7.70;99.90;;;;;;5015810;28;20378;-62
2022/04/24 04:58:23;;;;;;;9.93;6.88;;;7.80;99.90;;;;;;5005220;28;20042;-63
2022/04/24 05:00:48;;;;;;;12.32;7.30;;;7.70;99.90;;;;;;4996062;28;20088;-63
2022/04/24 05:03:14;;;;;;;8.85;6.60;;;7.80;99.90;;;;;;4977920;28;20038;-63
2022/04/24 05:05:40;;;;;;;9.68;7.60;;;7.80;99.90;;;;;;4978702;28;20044;-63
2022/04/24 05:08:05;;;;;;;8.82;6.57;;;7.70;99.90;;;;;;5003110;28;20046;-62
2022/04/24 05:10:31;;;;;;;10.00;7.53;;;7.80;99.90;;;;;;5015552;28;20065;-63
2022/04/24 05:12:57;;;;;;;9.48;7.25;;;7.80;99.90;;;;;;4997950;28;20041;-63
2022/04/24 05:15:23;;;;;;;11.07;7.45;;;7.80;99.90;;;;;;5015058;28;20076;-63
2022/04/24 05:17:48;;;;;;;9.25;7.07;;;8.00;99.90;;;;;;5009553;28;20459;-63
2022/04/24 05:20:14;;;;;;;9.88;7.03;;;8.40;99.90;;;;;;4995777;28;20057;-62
2022/04/24 05:22:40;;;;;;;8.45;6.22;;;8.50;99.90;;;;;;4994185;28;20101;-63
2022/04/24 05:25:09;;;;;;;10.00;7.32;;;8.90;99.90;;;;;;4977810;28;20372;-63
2022/04/24 05:27:39;;;;;;;8.93;6.50;;;9.50;99.90;;;;;;4998701;28;20041;-63
2022/04/24 05:30:07;;;;;;;8.82;6.57;;;9.80;99.90;;;;;;5014829;28;20483;-63
2022/04/24 05:32:47;;;;;;;10.65;6.75;;;10.00;99.90;;;;;;5014658;28;20045;-63
2022/04/24 05:35:13;;;;;;;9.05;6.10;;;10.40;99.90;;;;;;5014858;28;20088;-63
2022/04/24 05:37:40;;;;;;;8.18;5.97;;;10.60;99.90;;;;;;5011145;28;20368;-63
2022/04/24 05:40:06;;;;;;;8.75;5.68;;;10.90;99.90;;;;;;5007944;28;20049;-62
2022/04/24 05:42:34;;;;;;;8.07;5.97;;;11.10;99.90;;;;;;5013728;28;20129;-63
2022/04/24 05:45:01;;;;;;;9.45;5.95;;;11.10;99.90;;;;;;5013023;28;20061;-63
2022/04/24 05:47:27;;;;;;;7.93;6.00;;;11.10;99.90;;;;;;5012295;28;20069;-62
2022/04/24 05:49:53;;;;;;;8.73;6.05;;;11.10;99.90;;;;;;5009521;28;20030;-63
2022/04/24 05:52:18;;;;;;;11.27;6.65;;;11.40;99.90;;;;;;5013911;28;20355;-63
2022/04/24 05:54:44;;;;;;;8.15;6.10;;;11.50;99.90;;;;;;4995849;28;20049;-64
2022/04/24 05:57:10;;;;;;;8.10;5.38;;;11.60;99.90;;;;;;5013341;28;20053;-63
2022/04/24 05:59:36;;;;;;;7.43;5.55;;;11.80;99.90;;;;;;5012506;28;20455;-63
2022/04/24 06:02:02;;;;;;;11.02;5.93;;;11.70;99.90;;;;;;5013255;28;20072;-63
2022/04/24 06:04:27;;;;;;;8.20;6.05;;;11.30;99.90;;;;;;5013395;28;20393;-62
2022/04/24 06:06:53;;;;;;;8.35;5.93;;;10.70;99.90;;;;;;5011775;28;20112;-64
2022/04/24 06:09:19;;;;;;;9.05;6.20;;;10.50;99.90;;;;;;4996220;28;20052;-62
2022/04/24 06:11:45;;;;;;;8.20;5.63;;;10.70;99.90;;;;;;5013467;28;20064;-63
2022/04/24 06:14:11;;;;;;;8.63;5.90;;;11.40;99.90;;;;;;5013105;28;20041;-62
2022/04/24 06:16:37;;;;;;;9.80;6.00;;;12.00;99.90;;;;;;5013401;28;20038;-63
2022/04/24 06:19:03;;;;;;;11.38;6.32;;;12.60;99.90;;;;;;5007980;28;20046;-63
2022/04/24 06:21:28;;;;;;;8.95;6.03;;;12.60;99.90;;;;;;5013959;28;20038;-63
2022/04/24 06:23:54;;;;;;;7.90;5.72;;;12.80;99.90;;;;;;5012776;28;20044;-63
2022/04/24 06:26:20;;;;;;;7.70;5.97;;;12.70;99.90;;;;;;5012827;28;20044;-62
2022/04/24 06:28:45;;;;;;;7.88;5.63;;;12.70;99.90;;;;;;5001643;28;20070;-61
2022/04/24 06:31:11;;;;;;;9.77;5.93;;;12.40;99.90;;;;;;4994337;28;20045;-62
2022/04/24 06:33:37;;;;;;;10.00;5.80;;;12.40;99.90;;;;;;4992899;28;20035;-63
2022/04/24 06:36:03;;;;;;;7.03;4.95;;;12.40;99.90;;;;;;5005512;28;20128;-62
2022/04/24 06:38:28;;;;;;;8.70;5.28;;;12.10;99.90;;;;;;5012970;28;20064;-62
2022/04/24 06:40:54;;;;;;;9.55;5.75;;;11.80;99.90;;;;;;5013917;28;20046;-63
2022/04/24 06:43:20;;;;;;;8.93;6.00;;;11.80;99.90;;;;;;5013521;28;20052;-62
2022/04/24 06:45:45;;;;;;;9.40;5.80;;;11.90;99.90;;;;;;5013257;28;20137;-62
2022/04/24 06:48:16;;;;;;;8.65;5.78;;;12.10;99.90;;;;;;5005959;28;20092;-62
2022/04/24 06:50:47;;;;;;;9.40;5.97;;;12.00;99.90;;;;;;4994065;28;20049;-62
2022/04/24 06:53:18;;;;;;;7.25;5.18;;;12.20;99.90;;;;;;4993593;28;20367;-63
2022/04/24 06:55:45;;;;;;;8.75;5.15;;;11.80;99.90;;;;;;4994238;28;20039;-63
2022/04/24 06:58:12;;;;;;;9.77;5.40;;;11.70;99.90;;;;;;4984367;28;20041;-62
2022/04/24 07:00:41;;;;;;;8.80;6.35;;;12.00;99.90;;;;;;5013864;28;20075;-62
2022/04/24 07:03:20;;;;;;;9.10;5.32;;;11.80;99.90;;;;;;4979389;28;20053;-62
2022/04/24 07:05:47;;;;;;;10.32;5.60;;;12.20;99.90;;;;;;4995950;28;20100;-63
2022/04/24 07:08:13;;;;;;;9.25;5.85;;;12.10;99.90;;;;;;5005746;28;20053;-62
2022/04/24 07:10:39;;;;;;;9.23;6.28;;;12.10;99.90;;;;;;4994150;28;20034;-62
2022/04/24 07:13:05;;;;;;;9.40;5.97;;;12.10;99.90;;;;;;4993379;28;20047;-62
2022/04/24 07:15:35;;;;;;;8.85;5.90;;;12.10;99.90;;;;;;4994115;28;20042;-62
2022/04/24 07:18:01;;;;;;;8.60;5.68;;;12.50;99.90;;;;;;4999500;28;20042;-62
2022/04/24 07:20:29;;;;;;;7.53;5.28;;;12.70;99.90;;;;;;5013345;28;20459;-61
2022/04/24 07:23:03;;;;;;;9.05;5.55;;;13.00;99.90;;;;;;5013469;28;20113;-60
2022/04/24 07:25:33;;;;;;;10.00;6.07;;;13.20;99.80;;;;;;5013614;28;20130;-61
2022/04/24 07:27:58;;;;;;;7.82;5.40;;;13.00;99.90;;;;;;4990413;28;20038;-62
2022/04/24 07:30:25;;;;;;;8.50;5.85;;;12.80;99.90;;;;;;4976693;28;20077;-62
2022/04/24 07:32:55;;;;;;;7.78;5.70;;;12.40;99.90;;;;;;4993600;28;20121;-62
2022/04/24 07:35:25;;;;;;;8.30;4.82;;;12.40;99.90;;;;;;4993746;28;20078;-61
2022/04/24 07:37:51;;;;;;;8.90;5.53;;;12.30;99.90;;;;;;4998011;28;20033;-62
2022/04/24 07:40:22;;;;;;;8.80;5.38;;;12.20;99.90;;;;;;4995542;28;20502;-62
2022/04/24 07:42:56;;;;;;;8.77;5.88;;;12.30;99.90;;;;;;5012789;28;20377;-63
2022/04/24 07:45:26;;;;;;;8.70;5.93;;;12.30;99.90;;;;;;4993502;28;20101;-61
2022/04/24 07:47:53;;;;;;;9.25;5.18;;;12.30;99.90;;;;;;4991358;28;20043;-62
2022/04/24 07:50:21;;;;;;;11.05;6.00;;;12.40;99.90;;;;;;4977729;28;20050;-63
2022/04/24 07:52:47;;;;;;;7.88;5.65;;;12.40;99.90;;;;;;4976971;28;20372;-62
2022/04/24 07:55:17;;;;;;;8.30;5.85;;;12.60;99.90;;;;;;4977518;28;20181;-63
2022/04/24 07:57:43;;;;;;;9.77;5.60;;;12.60;99.90;;;;;;4980678;28;20082;-62
2022/04/24 08:00:10;;;;;;;9.23;6.22;;;12.50;99.90;;;;;;4997134;28;20125;-62
2022/04/24 08:02:54;;;;;;;11.10;5.97;;;12.40;99.90;;;;;;4996994;28;20387;-62
2022/04/24 08:05:23;;;;;;;9.55;6.03;;;12.40;99.90;;;;;;4997169;28;20062;-62
2022/04/24 08:07:52;;;;;;;11.38;5.90;;;12.30;99.90;;;;;;4991376;28;20051;-63
2022/04/24 08:10:20;;;;;;;8.68;5.68;;;12.40;99.90;;;;;;4977481;28;20042;-63
2022/04/24 08:12:46;;;;;;;8.98;5.97;;;12.50;99.90;;;;;;4977346;28;20047;-63
2022/04/24 08:15:12;;;;;;;9.82;5.70;;;12.70;99.90;;;;;;4977184;28;20050;-63
2022/04/24 08:17:38;;;;;;;9.32;5.70;;;12.80;99.90;;;;;;4979489;28;20477;-63
2022/04/24 08:20:05;;;;;;;9.32;5.35;;;12.90;99.90;;;;;;4997004;28;20081;-63
2022/04/24 08:22:59;;;;;;;6.85;5.10;;;13.00;99.90;;;;;;4996800;28;20046;-63
2022/04/24 08:25:26;;;;;;;10.07;5.80;;;13.10;99.90;;;;;;4994518;28;20081;-62
2022/04/24 08:27:53;;;;;;;7.65;5.70;;;13.10;99.90;;;;;;4991262;28;20047;-62
2022/04/24 08:30:21;;;;;;;7.80;5.20;;;13.20;99.80;;;;;;4977233;28;20030;-63
2022/04/24 08:32:47;;;;;;;7.03;4.78;;;13.30;99.40;;;;;;4976787;28;20423;-63
2022/04/24 08:35:15;;;;;;;7.70;4.65;;;13.30;99.10;;;;;;4977111;28;20039;-64
2022/04/24 08:37:41;;;;;;;9.93;5.00;;;13.30;99.10;;;;;;4979457;28;20053;-63
2022/04/24 08:40:11;;;;;;;10.40;5.38;;;13.40;99.00;;;;;;4996542;28;20038;-62
2022/04/24 08:42:37;;;;;;;8.07;4.78;;;13.40;98.80;;;;;;4996412;28;20125;-63
2022/04/24 08:45:04;;;;;;;8.15;4.93;;;13.60;98.90;;;;;;4998073;28;20038;-63
2022/04/24 08:47:31;;;;;;;7.90;4.90;;;13.70;99.00;;;;;;5014654;28;20402;-62
2022/04/24 08:50:00;;;;;;;7.85;4.47;;;13.70;98.40;;;;;;4996564;28;20049;-63
2022/04/24 08:52:27;;;;;;;9.13;5.03;;;13.80;98.50;;;;;;4998994;28;20089;-63
2022/04/24 08:54:56;;;;;;;7.10;4.80;;;14.00;98.50;;;;;;5015036;28;20099;-63
2022/04/24 08:57:26;;;;;;;6.45;3.92;;;14.00;97.70;;;;;;4996851;28;20065;-63
2022/04/24 08:59:56;;;;;;;7.75;4.03;;;14.20;97.70;;;;;;4995040;28;20475;-63
2022/04/24 09:02:22;;;;;;;6.95;4.43;;;14.20;97.70;;;;;;4995939;28;20093;-63
2022/04/24 09:04:48;;;;;;;7.95;4.40;;;14.20;98.00;;;;;;4995690;28;20053;-63
2022/04/24 09:07:20;;;;;;;6.93;4.05;;;14.30;97.90;;;;;;4995981;28;20118;-64
2022/04/24 09:09:48;;;;;;;7.55;4.05;;;14.50;97.60;;;;;;4996692;28;20092;-64
2022/04/24 09:12:28;;;;;;;6.78;4.25;;;14.70;97.00;;;;;;4996062;28;20034;-64
2022/04/24 09:14:58;;;;;;;6.97;4.50;;;14.50;96.90;;;;;;4995498;28;20042;-64
2022/04/24 09:17:25;;;;;;;6.38;3.75;;;14.50;96.80;;;;;;4995962;28;20085;-64
2022/04/24 09:19:52;;;;;;;8.25;3.55;;;14.80;96.50;;;;;;5014849;28;20419;-63
2022/04/24 09:22:18;;;;;;;8.88;4.40;;;14.80;96.00;;;;;;4997809;28;20056;-64
2022/04/24 09:24:46;;;;;;;6.28;3.88;;;14.80;96.20;;;;;;5014910;28;20363;-64
2022/04/24 09:27:22;;;;;;;6.53;3.38;;;14.80;96.30;;;;;;5015184;28;20048;-63
2022/04/24 09:29:56;;;;;;;7.80;4.03;;;14.90;96.40;;;;;;5014834;28;20622;-64
2022/04/24 09:32:23;;;;;;;;;;;15.10;96.10;;;;;;4997880;28;20049;-63
2022/04/24 09:34:49;;;;;;;4.18;3.13;;;15.20;96.20;;;;;;4997201;28;20329;-64
2022/04/24 09:37:15;;;;;;;5.72;3.83;;;15.40;95.00;;;;;;5015026;28;20045;-64
2022/04/24 09:39:41;;;;;;;5.60;3.25;;;15.40;95.10;;;;;;4996313;28;20042;-64
2022/04/24 09:42:08;;;;;;;6.32;3.28;;;15.50;94.60;;;;;;4995333;28;20086;-63
2022/04/24 09:44:39;;;;;;;4.72;3.13;;;15.50;94.10;;;;;;4994842;28;20153;-64
2022/04/24 09:47:06;;;;;;;4.97;3.00;;;15.50;94.40;;;;;;4974233;28;20059;-63
2022/04/24 09:49:37;;;;;;;6.72;3.28;;;15.70;94.10;;;;;;4992369;28;20078;-64
2022/04/24 09:52:10;;;;;;;2.85;2.17;;;15.70;94.30;;;;;;4995126;28;20075;-64
2022/04/24 09:54:38;;;;;;;3.17;2.15;;;15.80;92.30;;;;;;4994416;28;20474;-64
2022/04/24 09:57:06;;;;;;;4.13;2.30;;;16.00;92.20;;;;;;4994893;28;20053;-63
2022/04/24 09:59:34;;;;;;;5.30;2.80;;;16.10;92.40;;;;;;4978234;28;20182;-64
2022/04/24 10:02:01;;;;;;;4.10;2.40;;;16.20;91.40;;;;;;4975562;28;20468;-64
2022/04/24 10:04:27;;;;;;;4.93;2.53;;;16.30;91.50;;;;;;4975344;28;20118;-63
2022/04/24 10:06:53;;;;;;;3.30;2.28;;;16.20;91.20;;;;;;4975670;28;20035;-64
2022/04/24 10:09:20;;;;;;;4.15;3.00;;;16.30;91.50;;;;;;4989561;28;20109;-63
2022/04/24 10:11:46;;;;;;;3.95;2.38;;;16.50;91.10;;;;;;4993658;28;20336;-63
2022/04/24 10:14:15;;;;;;;4.63;2.47;;;16.50;91.00;;;;;;4994707;28;20049;-63
2022/04/24 10:16:50;;;;;;;4.32;2.83;;;16.60;90.30;;;;;;4993743;28;20108;-64
2022/04/24 10:19:16;;;;;;;5.35;2.88;;;16.60;90.10;;;;;;4980328;28;20074;-63
2022/04/24 10:22:20;;;;;;;4.25;2.85;;;16.60;90.30;;;;;;4975406;28;20500;-64
2022/04/24 10:24:46;;;;;;;3.92;2.85;;;16.70;90.20;;;;;;4967454;28;20058;-64
2022/04/24 10:27:12;;;;;;;4.13;2.90;;;16.70;89.80;;;;;;4975199;28;20035;-64
2022/04/24 10:29:59;;;;;;;4.80;2.95;;;16.70;89.80;;;;;;4992306;28;20034;-64
2022/04/24 10:32:26;;;;;;;4.30;2.60;;;16.70;89.40;;;;;;4993195;28;20054;-63
2022/04/24 10:34:52;;;;;;;4.72;2.72;;;16.70;89.60;;;;;;4993109;28;20525;-63
2022/04/24 10:37:27;;;;;;;5.72;3.05;;;16.80;89.40;;;;;;4993200;28;20133;-64
2022/04/24 10:39:58;;;;;;;6.88;2.97;;;16.90;87.70;;;;;;4994304;28;20038;-63
2022/04/24 10:42:35;;;;;;;5.07;2.80;;;16.90;87.90;;;;;;4994041;28;20125;-63
2022/04/24 10:45:18;;;;;;;5.40;3.25;;;16.90;88.80;;;;;;4995962;28;20056;-64
2022/04/24 10:47:55;;;;;;;5.10;2.95;;;17.00;87.80;;;;;;5012011;28;20052;-64
2022/04/24 10:50:22;;;;;;;5.60;3.10;;;17.00;87.50;;;;;;4994256;28;20046;-63
2022/04/24 10:52:52;;;;;;;4.65;2.58;;;17.00;85.70;;;;;;4993854;28;20053;-64
2022/04/24 10:55:22;;;;;;;7.30;2.90;;;16.90;85.40;;;;;;4994274;28;20042;-64
2022/04/24 10:58:00;;;;;;;5.13;2.70;;;17.00;87.40;;;;;;4996238;28;20529;-64
2022/04/24 11:00:34;;;;;;;7.40;2.70;;;17.20;86.30;;;;;;5014001;28;20046;-64
2022/04/24 11:03:13;;;;;;;4.38;2.58;;;17.40;88.10;;;;;;4996008;28;20104;-63
2022/04/24 11:05:41;;;;;;;6.57;2.70;;;17.60;86.30;;;;;;5013676;28;20041;-64
2022/04/24 11:08:09;;;;;;;6.78;2.72;;;17.50;86.80;;;;;;5008479;28;20114;-64
2022/04/24 11:10:43;;;;;;;4.10;2.40;;;17.30;86.10;;;;;;4993900;28;20478;-64
2022/04/24 11:13:11;;;;;;;3.97;2.40;;;17.40;83.90;;;;;;4994193;28;20057;-64
2022/04/24 11:15:42;;;;;;;5.50;3.10;;;17.50;85.10;;;;;;5006167;28;20431;-64
2022/04/24 11:18:26;;;;;;;4.97;2.88;;;17.50;81.60;;;;;;5012402;28;20133;-63
2022/04/24 11:21:06;;;;;;;9.20;2.45;;;17.50;83.10;;;;;;5013994;28;20374;-63
2022/04/24 11:23:35;;;;;;;3.40;2.20;;;17.40;85.30;;;;;;5016261;28;20049;-63
2022/04/24 11:26:05;;;;;;;4.82;2.22;;;17.40;84.60;;;;;;4999240;28;20045;-63
2022/04/24 11:28:43;;;;;;;3.83;2.45;;;17.20;84.50;;;;;;5015793;28;20030;-64
2022/04/24 11:31:17;;;;;;;4.95;2.30;;;17.20;83.80;;;;;;5016462;28;20545;-63
2022/04/24 11:33:57;;;;;;;4.72;2.30;;;17.30;84.30;;;;;;4999239;28;20056;-64
2022/04/24 11:36:25;;;;;;;3.95;2.20;;;17.60;83.00;;;;;;5017454;28;20048;-64
2022/04/24 11:38:52;;;;;;;4.30;2.15;;;17.60;83.00;;;;;;5016492;28;20057;-64
2022/04/24 11:41:19;;;;;;;3.25;2.08;;;17.60;82.30;;;;;;5017231;28;20060;-64
2022/04/24 11:43:45;;;;;;;4.80;2.15;;;17.70;81.10;;;;;;5016657;28;20144;-64
2022/04/24 11:51:40;;;;;;;3.45;2.00;;;17.70;78.50;;;;;;4997719;28;20112;-64
2022/04/24 11:54:15;;;;;;;3.38;1.90;;;17.80;80.30;;;;;;4979839;28;20050;-64
2022/04/24 11:56:42;;;;;;;4.05;1.90;;;18.00;80.50;;;;;;4997591;28;20096;-64
2022/04/24 11:59:19;;;;;;;4.95;2.13;;;17.80;79.40;;;;;;4992463;28;20056;-64
2022/04/24 12:01:53;;;;;;;5.13;2.10;;;17.60;80.10;;;;;;5016694;28;20069;-64
2022/04/24 12:04:19;;;;;;;5.63;2.05;;;17.70;79.80;;;;;;5016538;28;20061;-65
2022/04/24 12:06:46;;;;;;;4.05;1.92;;;17.70;79.90;;;;;;5015979;28;20138;-64
2022/04/24 12:09:12;;;;;;;4.55;1.88;;;17.60;79.00;;;;;;5015536;28;20076;-63
2022/04/24 12:11:38;;;;;;;2.95;1.90;;;17.50;79.10;;;;;;5016799;28;20069;-63
2022/04/24 12:14:06;;;;;;;3.75;1.85;;;17.60;77.80;;;;;;5016184;28;20073;-63
2022/04/24 12:16:33;;;;;;;3.65;2.05;;;17.80;77.80;;;;;;5016262;28;20137;-64
2022/04/24 12:18:59;;;;;;;3.08;1.92;;;17.80;78.30;;;;;;4995918;28;20046;-63
2022/04/24 12:21:31;;;;;;;3.38;2.00;;;18.10;79.90;;;;;;4979639;28;20053;-64
2022/04/24 12:23:57;;;;;;;5.25;2.03;;;17.90;79.80;;;;;;4996566;28;20456;-64
2022/04/24 12:26:23;;;;;;;2.60;1.90;;;17.60;79.70;;;;;;4996807;28;20302;-63
2022/04/24 12:28:49;;;;;;;5.00;1.85;;;17.70;77.40;;;;;;5006561;28;20049;-64
2022/04/24 12:31:23;;;;;;;4.63;2.35;;;17.90;76.90;;;;;;5016178;28;20042;-64
2022/04/24 12:33:51;;;;;;;;;;;17.80;79.40;;;;;;4998704;28;20316;-64
2022/04/24 12:36:17;;;;;;;7.00;2.30;;;17.80;80.40;;;;;;5016342;28;19917;-63
2022/04/24 12:39:06;;;;;;;3.88;2.20;;;17.60;80.60;;;;;;5007123;28;20121;-63
2022/04/24 12:41:33;;;;;;;6.07;2.10;;;17.60;80.90;;;;;;4996445;28;20050;-63
2022/04/24 12:44:04;;;;;;;4.75;1.90;;;17.70;80.20;;;;;;4997795;28;20124;-63
2022/04/24 12:46:31;;;;;;;5.97;2.40;;;17.50;80.80;;;;;;4993635;28;20459;-64
2022/04/24 12:48:57;;;;;;;5.60;2.20;;;17.40;81.00;;;;;;5002147;28;20045;-63
2022/04/24 12:51:24;;;;;;;3.65;2.03;;;17.50;81.00;;;;;;5014713;28;20034;-63
2022/04/24 12:53:51;;;;;;;3.63;2.03;;;17.60;80.40;;;;;;5014259;28;20044;-63
2022/04/24 12:56:17;;;;;;;4.32;2.28;;;17.70;80.00;;;;;;5014809;28;20034;-63